createdAt,value
2024-05-09T00:00:15.772Z,40.1850
2024-05-09T00:00:30.811Z,40.3660
2024-05-09T00:00:42.863Z,40.4770
2024-05-09T00:00:53.999Z,40.3710
2024-05-09T00:01:05.181Z,40.2890
2024-05-09T00:01:16.399Z,40.2410
2024-05-09T00:01:27.474Z,40.2290
2024-05-09T00:01:38.511Z,40.2060
2024-05-09T00:01:49.560Z,40.1950
2024-05-09T00:02:00.600Z,40.1950
2024-05-09T00:02:11.719Z,40.1770
2024-05-09T00:02:22.922Z,40.1830
2024-05-09T00:02:34.133Z,40.1910
2024-05-09T00:02:45.178Z,40.1830
2024-05-09T00:02:56.225Z,40.1890
2024-05-09T00:03:07.889Z,40.1890
2024-05-09T00:03:19.618Z,40.2290
2024-05-09T00:03:30.691Z,40.2180
2024-05-09T00:03:41.876Z,40.2000
2024-05-09T00:03:53.083Z,40.2120
2024-05-09T00:04:04.283Z,40.2060
2024-05-09T00:04:15.498Z,40.2060
2024-05-09T00:04:26.577Z,40.1950
2024-05-09T00:04:37.691Z,40.1960
2024-05-09T00:04:48.764Z,40.1960
2024-05-09T00:04:59.956Z,40.1850
2024-05-09T00:05:11.674Z,40.1910
2024-05-09T00:05:22.831Z,40.2150
2024-05-09T00:05:34.149Z,40.1910
2024-05-09T00:05:45.506Z,40.1960
2024-05-09T00:05:56.671Z,40.2090
2024-05-09T00:06:07.976Z,40.1790
2024-05-09T00:06:19.134Z,40.1960
2024-05-09T00:06:30.181Z,40.1850
2024-05-09T00:06:41.199Z,40.1730
2024-05-09T00:06:52.246Z,40.1730
2024-05-09T00:07:03.297Z,40.1730
2024-05-09T00:07:14.353Z,40.1730
2024-05-09T00:07:25.374Z,40.1730
2024-05-09T00:07:36.424Z,40.1530
2024-05-09T00:07:47.503Z,40.1700
2024-05-09T00:07:58.592Z,40.1590
2024-05-09T00:08:09.837Z,40.1700
2024-05-09T00:08:21.382Z,40.1870
2024-05-09T00:08:32.637Z,40.1700
2024-05-09T00:08:43.756Z,40.1760
2024-05-09T00:08:54.855Z,40.1760
2024-05-09T00:09:05.913Z,40.1590
2024-05-09T00:09:16.963Z,40.1590
2024-05-09T00:09:27.972Z,40.1820
2024-05-09T00:09:39.008Z,40.1870
2024-05-09T00:09:50.056Z,40.1930
2024-05-09T00:10:01.135Z,40.1930
2024-05-09T00:10:22.091Z,40.1930
2024-05-09T00:10:35.732Z,40.3760
2024-05-09T00:10:46.151Z,40.4560
2024-05-09T00:10:57.333Z,40.3600
2024-05-09T00:11:08.572Z,40.2890
2024-05-09T00:11:19.768Z,40.2480
2024-05-09T00:11:30.891Z,40.2390
2024-05-09T00:11:42.084Z,40.2330
2024-05-09T00:11:53.333Z,40.2150
2024-05-09T00:12:04.585Z,40.2210
2024-05-09T00:12:15.782Z,40.2210
2024-05-09T00:12:26.907Z,40.2020
2024-05-09T00:12:37.955Z,40.2020
2024-05-09T00:12:49.004Z,40.2020
2024-05-09T00:13:00.053Z,40.2150
2024-05-09T00:13:11.492Z,40.2120
2024-05-09T00:13:22.790Z,40.2300
2024-05-09T00:13:33.819Z,40.1990
2024-05-09T00:13:44.946Z,40.1990
2024-05-09T00:13:56.093Z,40.1870
2024-05-09T00:14:07.206Z,40.1870
2024-05-09T00:14:18.282Z,40.1870
2024-05-09T00:14:29.399Z,40.1760
2024-05-09T00:14:40.455Z,40.1820
2024-05-09T00:14:51.487Z,40.1870
2024-05-09T00:15:02.494Z,40.1760
2024-05-09T00:15:13.546Z,40.1910
2024-05-09T00:15:24.602Z,40.1850
2024-05-09T00:15:36.453Z,40.1960
2024-05-09T00:15:48.047Z,40.2560
2024-05-09T00:15:59.087Z,40.2210
2024-05-09T00:16:10.153Z,40.2150
2024-05-09T00:16:21.201Z,40.2150
2024-05-09T00:16:32.262Z,40.2270
2024-05-09T00:16:43.334Z,40.2150
2024-05-09T00:16:54.505Z,40.2210
2024-05-09T00:17:05.571Z,40.2150
2024-05-09T00:17:16.751Z,40.2210
2024-05-09T00:17:27.964Z,40.2270
2024-05-09T00:17:39.392Z,40.2150
2024-05-09T00:17:50.714Z,40.2330
2024-05-09T00:18:02.270Z,40.2330
2024-05-09T00:18:13.839Z,40.2500
2024-05-09T00:18:25.173Z,40.2500
2024-05-09T00:18:36.509Z,40.2440
2024-05-09T00:18:47.659Z,40.2270
2024-05-09T00:18:58.964Z,40.2390
2024-05-09T00:19:10.284Z,40.2330
2024-05-09T00:19:21.579Z,40.2330
2024-05-09T00:19:32.785Z,40.2390
2024-05-09T00:19:43.964Z,40.2270
2024-05-09T00:19:55.067Z,40.2150
2024-05-09T00:20:14.269Z,40.2270
2024-05-09T00:20:28.565Z,40.4270
2024-05-09T00:20:41.276Z,40.5140
2024-05-09T00:20:52.723Z,40.4780
2024-05-09T00:21:03.881Z,40.3710
2024-05-09T00:21:15.141Z,40.3370
2024-05-09T00:21:26.191Z,40.3000
2024-05-09T00:21:37.261Z,40.2770
2024-05-09T00:21:48.278Z,40.2600
2024-05-09T00:21:59.315Z,40.2600
2024-05-09T00:22:10.341Z,40.2710
2024-05-09T00:22:21.401Z,40.2600
2024-05-09T00:22:32.451Z,40.2560
2024-05-09T00:22:43.556Z,40.2620
2024-05-09T00:22:54.660Z,40.2390
2024-05-09T00:23:05.731Z,40.2440
2024-05-09T00:23:16.853Z,40.2440
2024-05-09T00:23:27.978Z,40.2500
2024-05-09T00:23:39.084Z,40.2330
2024-05-09T00:23:50.190Z,40.2390
2024-05-09T00:24:01.233Z,40.2390
2024-05-09T00:24:12.276Z,40.2210
2024-05-09T00:24:23.339Z,40.2270
2024-05-09T00:24:34.372Z,40.2270
2024-05-09T00:24:45.428Z,40.2270
2024-05-09T00:24:56.507Z,40.2330
2024-05-09T00:25:07.541Z,40.2330
2024-05-09T00:25:18.609Z,40.2270
2024-05-09T00:25:29.650Z,40.2330
2024-05-09T00:25:40.743Z,40.2390
2024-05-09T00:25:51.865Z,40.2390
2024-05-09T00:26:02.999Z,40.2440
2024-05-09T00:26:14.071Z,40.2500
2024-05-09T00:26:25.179Z,40.2500
2024-05-09T00:26:36.385Z,40.2440
2024-05-09T00:26:47.429Z,40.2500
2024-05-09T00:26:58.483Z,40.2440
2024-05-09T00:27:11.987Z,40.2330
2024-05-09T00:27:24.369Z,40.3860
2024-05-09T00:27:35.435Z,40.3100
2024-05-09T00:27:46.498Z,40.2620
2024-05-09T00:27:57.539Z,40.2440
2024-05-09T00:28:08.564Z,40.2500
2024-05-09T00:28:19.717Z,40.2620
2024-05-09T00:28:30.771Z,40.2560
2024-05-09T00:28:41.863Z,40.2500
2024-05-09T00:28:53.003Z,40.2440
2024-05-09T00:29:04.078Z,40.2390
2024-05-09T00:29:15.182Z,40.2500
2024-05-09T00:29:26.316Z,40.2500
2024-05-09T00:29:37.464Z,40.2390
2024-05-09T00:29:48.475Z,40.2390
2024-05-09T00:29:59.542Z,40.2440
2024-05-09T00:30:14.506Z,40.2440
2024-05-09T00:30:33.750Z,40.4330
2024-05-09T00:30:44.442Z,40.5430
2024-05-09T00:30:55.492Z,40.4430
2024-05-09T00:31:06.541Z,40.3600
2024-05-09T00:31:17.625Z,40.3120
2024-05-09T00:31:28.658Z,40.3000
2024-05-09T00:31:39.726Z,40.2910
2024-05-09T00:31:51.100Z,40.2910
2024-05-09T00:32:02.359Z,40.3040
2024-05-09T00:32:13.450Z,40.2910
2024-05-09T00:32:24.682Z,40.2790
2024-05-09T00:32:35.985Z,40.2910
2024-05-09T00:32:47.312Z,40.2910
2024-05-09T00:32:58.697Z,40.2850
2024-05-09T00:33:10.977Z,40.2850
2024-05-09T00:33:23.134Z,40.3660
2024-05-09T00:33:34.864Z,40.3480
2024-05-09T00:33:46.097Z,40.3370
2024-05-09T00:33:57.589Z,40.3060
2024-05-09T00:34:09.028Z,40.3040
2024-05-09T00:34:20.306Z,40.3100
2024-05-09T00:34:31.567Z,40.2980
2024-05-09T00:34:42.733Z,40.2850
2024-05-09T00:34:53.790Z,40.2790
2024-05-09T00:35:04.875Z,40.2790
2024-05-09T00:35:16.107Z,40.2850
2024-05-09T00:35:27.227Z,40.2910
2024-05-09T00:35:38.836Z,40.2790
2024-05-09T00:35:50.131Z,40.3100
2024-05-09T00:36:01.186Z,40.2790
2024-05-09T00:36:12.240Z,40.2790
2024-05-09T00:36:23.296Z,40.2680
2024-05-09T00:36:34.356Z,40.2680
2024-05-09T00:36:45.426Z,40.2560
2024-05-09T00:36:56.491Z,40.2620
2024-05-09T00:37:07.555Z,40.2730
2024-05-09T00:37:18.586Z,40.2560
2024-05-09T00:37:29.633Z,40.2560
2024-05-09T00:37:40.944Z,40.2560
2024-05-09T00:37:52.037Z,40.2560
2024-05-09T00:38:03.345Z,40.2730
2024-05-09T00:38:14.631Z,40.2910
2024-05-09T00:38:25.737Z,40.2790
2024-05-09T00:38:37.031Z,40.2680
2024-05-09T00:38:48.121Z,40.2680
2024-05-09T00:38:59.181Z,40.2620
2024-05-09T00:39:10.226Z,40.2680
2024-05-09T00:39:21.250Z,40.2500
2024-05-09T00:39:32.301Z,40.2470
2024-05-09T00:39:43.328Z,40.2360
2024-05-09T00:39:54.373Z,40.2360
2024-05-09T00:40:26.440Z,40.2360
2024-05-09T00:40:38.794Z,40.4330
2024-05-09T00:40:50.849Z,40.5200
2024-05-09T00:41:01.955Z,40.4430
2024-05-09T00:41:14.148Z,40.3540
2024-05-09T00:41:26.345Z,40.4000
2024-05-09T00:41:37.501Z,40.3330
2024-05-09T00:41:48.641Z,40.3100
2024-05-09T00:41:59.671Z,40.2730
2024-05-09T00:42:10.721Z,40.2590
2024-05-09T00:42:21.805Z,40.2530
2024-05-09T00:42:32.864Z,40.2410
2024-05-09T00:42:43.896Z,40.2410
2024-05-09T00:42:54.955Z,40.2360
2024-05-09T00:43:06.061Z,40.2240
2024-05-09T00:43:17.095Z,40.2300
2024-05-09T00:43:28.134Z,40.2180
2024-05-09T00:43:39.172Z,40.2360
2024-05-09T00:43:50.299Z,40.2240
2024-05-09T00:44:01.411Z,40.2300
2024-05-09T00:44:12.491Z,40.2180
2024-05-09T00:44:23.658Z,40.2360
2024-05-09T00:44:34.775Z,40.2410
2024-05-09T00:44:45.796Z,40.2360
2024-05-09T00:44:56.854Z,40.2360
2024-05-09T00:45:07.895Z,40.2300
2024-05-09T00:45:18.955Z,40.2240
2024-05-09T00:45:30.003Z,40.2360
2024-05-09T00:45:41.070Z,40.2360
2024-05-09T00:45:52.148Z,40.2360
2024-05-09T00:46:03.168Z,40.2410
2024-05-09T00:46:14.233Z,40.2360
2024-05-09T00:46:25.287Z,40.2410
2024-05-09T00:46:36.387Z,40.2360
2024-05-09T00:46:47.475Z,40.2410
2024-05-09T00:46:58.559Z,40.2440
2024-05-09T00:47:09.938Z,40.2390
2024-05-09T00:47:21.297Z,40.2620
2024-05-09T00:47:32.536Z,40.2730
2024-05-09T00:47:43.878Z,40.2680
2024-05-09T00:47:55.144Z,40.2730
2024-05-09T00:48:07.102Z,40.2620
2024-05-09T00:48:21.401Z,40.3440
2024-05-09T00:48:32.967Z,40.3860
2024-05-09T00:48:44.267Z,40.3440
2024-05-09T00:48:55.545Z,40.3100
2024-05-09T00:49:06.726Z,40.2850
2024-05-09T00:49:17.925Z,40.2790
2024-05-09T00:49:29.253Z,40.2730
2024-05-09T00:49:40.540Z,40.2790
2024-05-09T00:49:51.783Z,40.2850
2024-05-09T00:50:04.154Z,40.2790
2024-05-09T00:50:19.438Z,40.3270
2024-05-09T00:50:36.218Z,40.4890
2024-05-09T00:50:49.391Z,40.5780
2024-05-09T00:51:00.619Z,40.4720
2024-05-09T00:51:11.785Z,40.4000
2024-05-09T00:51:22.906Z,40.3600
2024-05-09T00:51:33.983Z,40.3230
2024-05-09T00:51:45.051Z,40.3370
2024-05-09T00:51:56.102Z,40.3230
2024-05-09T00:52:07.162Z,40.3180
2024-05-09T00:52:18.188Z,40.3120
2024-05-09T00:52:29.245Z,40.3120
2024-05-09T00:52:40.286Z,40.3060
2024-05-09T00:52:51.489Z,40.2890
2024-05-09T00:53:02.600Z,40.3000
2024-05-09T00:53:13.710Z,40.3120
2024-05-09T00:53:24.867Z,40.3230
2024-05-09T00:53:36.022Z,40.3060
2024-05-09T00:53:47.132Z,40.3060
2024-05-09T00:53:58.155Z,40.3060
2024-05-09T00:54:09.218Z,40.3060
2024-05-09T00:54:20.278Z,40.3100
2024-05-09T00:54:31.323Z,40.2850
2024-05-09T00:54:42.368Z,40.2940
2024-05-09T00:54:53.424Z,40.3000
2024-05-09T00:55:04.475Z,40.3040
2024-05-09T00:55:15.529Z,40.2890
2024-05-09T00:55:26.610Z,40.3000
2024-05-09T00:55:37.674Z,40.3120
2024-05-09T00:55:48.752Z,40.3060
2024-05-09T00:55:59.890Z,40.3230
2024-05-09T00:56:11.200Z,40.3180
2024-05-09T00:56:22.381Z,40.3230
2024-05-09T00:56:33.592Z,40.3230
2024-05-09T00:56:44.652Z,40.3180
2024-05-09T00:56:55.712Z,40.3180
2024-05-09T00:57:06.821Z,40.3270
2024-05-09T00:57:17.894Z,40.3100
2024-05-09T00:57:28.960Z,40.2980
2024-05-09T00:57:40.027Z,40.2850
2024-05-09T00:57:51.076Z,40.2980
2024-05-09T00:58:02.103Z,40.2850
2024-05-09T00:58:13.165Z,40.2730
2024-05-09T00:58:24.203Z,40.2790
2024-05-09T00:58:35.254Z,40.2850
2024-05-09T00:58:46.349Z,40.2760
2024-05-09T00:58:57.459Z,40.2680
2024-05-09T00:59:08.560Z,40.2910
2024-05-09T00:59:19.650Z,40.2790
2024-05-09T00:59:30.752Z,40.2980
2024-05-09T00:59:41.820Z,40.2910
2024-05-09T00:59:52.903Z,40.3040
2024-05-09T01:00:05.986Z,40.2910
2024-05-09T01:00:26.222Z,40.3730
2024-05-09T01:00:38.734Z,40.5200
2024-05-09T01:00:51.159Z,40.6140
2024-05-09T01:01:02.307Z,40.5010
2024-05-09T01:01:13.435Z,40.4430
2024-05-09T01:01:24.535Z,40.4000
2024-05-09T01:01:35.810Z,40.3770
2024-05-09T01:01:47.027Z,40.3770
2024-05-09T01:01:58.339Z,40.3770
2024-05-09T01:02:09.579Z,40.3710
2024-05-09T01:02:20.703Z,40.3600
2024-05-09T01:02:31.871Z,40.3660
2024-05-09T01:02:43.121Z,40.3710
2024-05-09T01:02:54.360Z,40.3710
2024-05-09T01:03:06.068Z,40.3710
2024-05-09T01:03:17.585Z,40.4000
2024-05-09T01:03:29.044Z,40.3890
2024-05-09T01:03:40.433Z,40.3890
2024-05-09T01:03:51.955Z,40.3950
2024-05-09T01:04:03.504Z,40.4060
2024-05-09T01:04:14.597Z,40.3890
2024-05-09T01:04:25.670Z,40.3890
2024-05-09T01:04:36.738Z,40.3710
2024-05-09T01:04:47.914Z,40.3660
2024-05-09T01:04:59.063Z,40.3600
2024-05-09T01:05:10.343Z,40.3710
2024-05-09T01:05:21.528Z,40.3770
2024-05-09T01:05:32.702Z,40.3540
2024-05-09T01:05:44.002Z,40.3660
2024-05-09T01:05:55.276Z,40.3830
2024-05-09T01:06:06.423Z,40.3830
2024-05-09T01:06:17.469Z,40.3660
2024-05-09T01:06:28.531Z,40.3600
2024-05-09T01:06:39.579Z,40.3540
2024-05-09T01:06:50.646Z,40.3480
2024-05-09T01:07:01.702Z,40.3600
2024-05-09T01:07:12.735Z,40.3600
2024-05-09T01:07:23.785Z,40.3710
2024-05-09T01:07:34.843Z,40.3600
2024-05-09T01:07:46.140Z,40.3660
2024-05-09T01:07:57.227Z,40.3600
2024-05-09T01:08:08.808Z,40.3600
2024-05-09T01:08:20.556Z,40.3890
2024-05-09T01:08:31.648Z,40.3830
2024-05-09T01:08:42.805Z,40.3710
2024-05-09T01:08:53.853Z,40.3830
2024-05-09T01:09:04.898Z,40.3710
2024-05-09T01:09:15.949Z,40.3670
2024-05-09T01:09:27.002Z,40.3560
2024-05-09T01:09:38.043Z,40.3620
2024-05-09T01:09:49.116Z,40.3560
2024-05-09T01:10:00.212Z,40.3560
2024-05-09T01:10:17.073Z,40.3620
2024-05-09T01:10:34.012Z,40.5600
2024-05-09T01:10:47.109Z,40.6720
2024-05-09T01:10:59.817Z,40.6720
2024-05-09T01:11:11.066Z,40.5760
2024-05-09T01:11:22.368Z,40.5080
2024-05-09T01:11:33.584Z,40.4840
2024-05-09T01:11:44.872Z,40.4600
2024-05-09T01:11:56.078Z,40.4540
2024-05-09T01:12:07.248Z,40.4430
2024-05-09T01:12:18.574Z,40.4250
2024-05-09T01:12:29.873Z,40.4310
2024-05-09T01:12:40.953Z,40.4180
2024-05-09T01:12:52.024Z,40.3950
2024-05-09T01:13:03.056Z,40.4000
2024-05-09T01:13:14.207Z,40.4060
2024-05-09T01:13:25.262Z,40.4000
2024-05-09T01:13:36.313Z,40.4000
2024-05-09T01:13:47.345Z,40.3950
2024-05-09T01:13:58.425Z,40.3890
2024-05-09T01:14:09.607Z,40.3950
2024-05-09T01:14:20.680Z,40.4060
2024-05-09T01:14:31.741Z,40.3950
2024-05-09T01:14:42.775Z,40.3860
2024-05-09T01:14:53.853Z,40.3920
2024-05-09T01:15:04.901Z,40.3920
2024-05-09T01:15:15.947Z,40.3670
2024-05-09T01:15:26.991Z,40.3790
2024-05-09T01:15:38.072Z,40.3790
2024-05-09T01:15:49.125Z,40.3860
2024-05-09T01:16:00.181Z,40.3860
2024-05-09T01:16:11.277Z,40.3790
2024-05-09T01:16:22.298Z,40.3730
2024-05-09T01:16:33.417Z,40.3790
2024-05-09T01:16:44.539Z,40.3860
2024-05-09T01:16:55.611Z,40.3790
2024-05-09T01:17:06.795Z,40.3920
2024-05-09T01:17:18.018Z,40.3980
2024-05-09T01:17:29.286Z,40.3980
2024-05-09T01:17:40.699Z,40.4100
2024-05-09T01:17:52.059Z,40.4160
2024-05-09T01:18:03.409Z,40.4120
2024-05-09T01:18:14.746Z,40.4210
2024-05-09T01:18:26.070Z,40.4270
2024-05-09T01:18:37.223Z,40.4040
2024-05-09T01:18:48.386Z,40.4160
2024-05-09T01:18:59.512Z,40.3980
2024-05-09T01:19:10.729Z,40.4100
2024-05-09T01:19:22.009Z,40.4160
2024-05-09T01:19:33.212Z,40.4210
2024-05-09T01:19:44.400Z,40.4160
2024-05-09T01:19:55.495Z,40.4120
2024-05-09T01:20:10.638Z,40.4180
2024-05-09T01:20:32.115Z,40.5950
2024-05-09T01:20:43.409Z,40.7150
2024-05-09T01:20:56.228Z,40.7550
2024-05-09T01:21:07.258Z,40.6030
2024-05-09T01:21:18.420Z,40.5200
2024-05-09T01:21:29.544Z,40.5060
2024-05-09T01:21:40.610Z,40.4830
2024-05-09T01:21:51.644Z,40.4770
2024-05-09T01:22:02.706Z,40.4720
2024-05-09T01:22:13.722Z,40.4600
2024-05-09T01:22:24.781Z,40.4600
2024-05-09T01:22:35.838Z,40.4660
2024-05-09T01:22:46.973Z,40.4540
2024-05-09T01:22:58.107Z,40.4600
2024-05-09T01:23:09.860Z,40.4660
2024-05-09T01:23:21.291Z,40.5060
2024-05-09T01:23:32.634Z,40.4830
2024-05-09T01:23:43.804Z,40.4890
2024-05-09T01:23:54.854Z,40.4770
2024-05-09T01:24:05.909Z,40.4770
2024-05-09T01:24:16.925Z,40.4720
2024-05-09T01:24:27.988Z,40.4720
2024-05-09T01:24:39.029Z,40.4770
2024-05-09T01:24:50.079Z,40.4770
2024-05-09T01:25:01.158Z,40.4770
2024-05-09T01:25:12.213Z,40.4660
2024-05-09T01:25:23.275Z,40.4720
2024-05-09T01:25:34.323Z,40.4720
2024-05-09T01:25:46.445Z,40.4770
2024-05-09T01:25:58.032Z,40.5490
2024-05-09T01:26:09.109Z,40.5250
2024-05-09T01:26:20.393Z,40.5000
2024-05-09T01:26:31.551Z,40.4950
2024-05-09T01:26:42.657Z,40.4890
2024-05-09T01:26:53.692Z,40.4830
2024-05-09T01:27:04.739Z,40.4720
2024-05-09T01:27:15.789Z,40.4770
2024-05-09T01:27:26.826Z,40.4770
2024-05-09T01:27:37.872Z,40.4660
2024-05-09T01:27:48.933Z,40.4720
2024-05-09T01:27:59.991Z,40.4770
2024-05-09T01:28:11.046Z,40.4720
2024-05-09T01:28:22.111Z,40.4600
2024-05-09T01:28:33.164Z,40.4600
2024-05-09T01:28:44.280Z,40.4600
2024-05-09T01:28:55.433Z,40.4660
2024-05-09T01:29:06.629Z,40.4600
2024-05-09T01:29:17.706Z,40.4600
2024-05-09T01:29:28.910Z,40.4660
2024-05-09T01:29:40.048Z,40.4720
2024-05-09T01:29:51.145Z,40.4720
2024-05-09T01:30:03.027Z,40.4720
2024-05-09T01:30:21.062Z,40.5950
2024-05-09T01:30:36.112Z,40.7140
2024-05-09T01:30:48.866Z,40.7610
2024-05-09T01:30:59.920Z,40.6320
2024-05-09T01:31:10.980Z,40.5550
2024-05-09T01:31:22.160Z,40.5370
2024-05-09T01:31:33.242Z,40.5140
2024-05-09T01:31:44.399Z,40.5140
2024-05-09T01:31:55.553Z,40.5140
2024-05-09T01:32:06.791Z,40.5000
2024-05-09T01:32:17.954Z,40.5060
2024-05-09T01:32:29.139Z,40.5060
2024-05-09T01:32:40.395Z,40.5140
2024-05-09T01:32:51.757Z,40.5140
2024-05-09T01:33:03.389Z,40.5250
2024-05-09T01:33:14.974Z,40.5430
2024-05-09T01:33:26.445Z,40.5310
2024-05-09T01:33:38.341Z,40.5430
2024-05-09T01:33:49.697Z,40.5490
2024-05-09T01:34:00.948Z,40.5370
2024-05-09T01:34:12.034Z,40.5250
2024-05-09T01:34:23.118Z,40.5000
2024-05-09T01:34:34.136Z,40.4950
2024-05-09T01:34:45.179Z,40.5000
2024-05-09T01:34:56.264Z,40.5060
2024-05-09T01:35:07.395Z,40.5000
2024-05-09T01:35:18.529Z,40.5200
2024-05-09T01:35:29.699Z,40.5310
2024-05-09T01:35:41.953Z,40.5310
2024-05-09T01:35:53.863Z,40.6140
2024-05-09T01:36:04.944Z,40.5660
2024-05-09T01:36:16.020Z,40.5430
2024-05-09T01:36:27.097Z,40.5310
2024-05-09T01:36:38.137Z,40.5370
2024-05-09T01:36:49.155Z,40.5430
2024-05-09T01:37:00.215Z,40.5370
2024-05-09T01:37:11.266Z,40.5250
2024-05-09T01:37:22.320Z,40.5370
2024-05-09T01:37:33.358Z,40.5430
2024-05-09T01:37:44.440Z,40.5370
2024-05-09T01:37:55.543Z,40.5370
2024-05-09T01:38:06.823Z,40.5430
2024-05-09T01:38:18.000Z,40.5490
2024-05-09T01:38:29.120Z,40.5370
2024-05-09T01:38:40.275Z,40.5430
2024-05-09T01:38:51.315Z,40.5370
2024-05-09T01:39:02.388Z,40.5250
2024-05-09T01:39:13.448Z,40.5370
2024-05-09T01:39:24.480Z,40.5250
2024-05-09T01:39:35.529Z,40.5370
2024-05-09T01:39:46.583Z,40.5310
2024-05-09T01:39:57.647Z,40.5370
2024-05-09T01:40:12.289Z,40.5210
2024-05-09T01:40:35.542Z,40.7080
2024-05-09T01:40:42.613Z,40.8260
2024-05-09T01:40:53.731Z,40.7090
2024-05-09T01:41:04.809Z,40.6370
2024-05-09T01:41:15.978Z,40.6030
2024-05-09T01:41:27.142Z,40.5780
2024-05-09T01:41:38.290Z,40.5890
2024-05-09T01:41:49.318Z,40.5780
2024-05-09T01:42:00.374Z,40.5600
2024-05-09T01:42:11.417Z,40.5780
2024-05-09T01:42:22.435Z,40.5490
2024-05-09T01:42:33.488Z,40.5430
2024-05-09T01:42:44.528Z,40.5540
2024-05-09T01:42:55.568Z,40.5540
2024-05-09T01:43:06.944Z,40.5490
2024-05-09T01:43:18.285Z,40.5750
2024-05-09T01:43:29.328Z,40.5510
2024-05-09T01:43:40.361Z,40.5450
2024-05-09T01:43:51.453Z,40.5330
2024-05-09T01:44:02.479Z,40.5210
2024-05-09T01:44:13.642Z,40.5450
2024-05-09T01:44:24.763Z,40.5450
2024-05-09T01:44:35.891Z,40.5330
2024-05-09T01:44:46.944Z,40.5390
2024-05-09T01:44:57.976Z,40.5270
2024-05-09T01:45:09.022Z,40.5330
2024-05-09T01:45:20.084Z,40.5270
2024-05-09T01:45:31.176Z,40.5330
2024-05-09T01:45:42.271Z,40.5390
2024-05-09T01:45:53.265Z,40.5390
2024-05-09T01:46:04.311Z,40.5330
2024-05-09T01:46:15.378Z,40.5330
2024-05-09T01:46:26.416Z,40.5390
2024-05-09T01:46:37.460Z,40.5510
2024-05-09T01:46:48.567Z,40.5510
2024-05-09T01:46:59.691Z,40.5510
2024-05-09T01:47:10.905Z,40.5660
2024-05-09T01:47:22.314Z,40.5600
2024-05-09T01:47:33.609Z,40.5780
2024-05-09T01:47:44.938Z,40.5720
2024-05-09T01:47:56.287Z,40.5830
2024-05-09T01:48:07.552Z,40.5890
2024-05-09T01:48:18.808Z,40.6030
2024-05-09T01:48:30.018Z,40.6030
2024-05-09T01:48:41.282Z,40.5890
2024-05-09T01:48:52.436Z,40.5890
2024-05-09T01:49:03.647Z,40.5890
2024-05-09T01:49:14.868Z,40.5950
2024-05-09T01:49:26.116Z,40.6080
2024-05-09T01:49:37.466Z,40.6080
2024-05-09T01:49:48.603Z,40.6200
2024-05-09T01:49:59.700Z,40.6030
2024-05-09T01:50:11.106Z,40.5950
2024-05-09T01:50:33.634Z,40.6140
2024-05-09T01:50:42.277Z,40.7970
2024-05-09T01:50:54.371Z,40.8630
2024-05-09T01:51:05.442Z,40.7380
2024-05-09T01:51:16.660Z,40.6860
2024-05-09T01:51:27.732Z,40.6600
2024-05-09T01:51:38.764Z,40.6430
2024-05-09T01:51:49.825Z,40.6370
2024-05-09T01:52:00.931Z,40.6430
2024-05-09T01:52:11.951Z,40.6370
2024-05-09T01:52:23.082Z,40.6370
2024-05-09T01:52:34.128Z,40.6430
2024-05-09T01:52:45.304Z,40.6260
2024-05-09T01:52:56.472Z,40.6430
2024-05-09T01:53:07.688Z,40.6430
2024-05-09T01:53:18.833Z,40.6430
2024-05-09T01:53:29.930Z,40.6370
2024-05-09T01:53:41.050Z,40.6370
2024-05-09T01:53:52.112Z,40.6490
2024-05-09T01:54:03.156Z,40.6490
2024-05-09T01:54:14.194Z,40.6490
2024-05-09T01:54:25.280Z,40.6430
2024-05-09T01:54:36.314Z,40.6550
2024-05-09T01:54:47.409Z,40.6550
2024-05-09T01:55:00.701Z,40.6430
2024-05-09T01:55:13.161Z,40.7970
2024-05-09T01:55:24.240Z,40.7320
2024-05-09T01:55:35.327Z,40.6970
2024-05-09T01:55:46.434Z,40.6780
2024-05-09T01:55:57.490Z,40.6550
2024-05-09T01:56:08.567Z,40.6660
2024-05-09T01:56:19.633Z,40.6490
2024-05-09T01:56:30.834Z,40.6550
2024-05-09T01:56:41.984Z,40.6550
2024-05-09T01:56:53.042Z,40.6550
2024-05-09T01:57:04.075Z,40.6370
2024-05-09T01:57:15.152Z,40.6430
2024-05-09T01:57:26.197Z,40.6490
2024-05-09T01:57:37.253Z,40.6660
2024-05-09T01:57:48.285Z,40.6600
2024-05-09T01:57:59.360Z,40.6720
2024-05-09T01:58:10.419Z,40.6660
2024-05-09T01:58:21.489Z,40.6660
2024-05-09T01:58:32.545Z,40.6660
2024-05-09T01:58:43.590Z,40.6720
2024-05-09T01:58:54.688Z,40.6660
2024-05-09T01:59:05.760Z,40.6840
2024-05-09T01:59:16.841Z,40.6780
2024-05-09T01:59:27.953Z,40.6720
2024-05-09T01:59:39.104Z,40.6910
2024-05-09T01:59:50.131Z,40.6910
2024-05-09T02:00:01.225Z,40.6780
2024-05-09T02:00:15.725Z,40.6970
2024-05-09T02:00:36.173Z,40.8750
2024-05-09T02:00:46.166Z,40.9930
2024-05-09T02:00:57.283Z,40.9040
2024-05-09T02:01:08.423Z,40.8150
2024-05-09T02:01:19.489Z,40.7610
2024-05-09T02:01:30.635Z,40.7380
2024-05-09T02:01:56.583Z,40.9270
2024-05-09T02:02:04.589Z,41.0310
2024-05-09T02:02:15.854Z,40.9190
2024-05-09T02:02:27.016Z,40.8310
2024-05-09T02:02:38.202Z,40.7920
2024-05-09T02:02:49.384Z,40.7800
2024-05-09T02:03:00.844Z,40.7670
2024-05-09T02:03:15.212Z,40.7800
2024-05-09T02:03:29.118Z,40.9580
2024-05-09T02:03:40.448Z,40.8860
2024-05-09T02:03:51.659Z,40.8210
2024-05-09T02:04:03.240Z,40.7980
2024-05-09T02:04:14.590Z,40.7860
2024-05-09T02:04:25.966Z,40.7670
2024-05-09T02:04:37.149Z,40.7490
2024-05-09T02:04:48.353Z,40.7490
2024-05-09T02:04:59.599Z,40.7380
2024-05-09T02:05:10.923Z,40.7430
2024-05-09T02:05:22.244Z,40.7490
2024-05-09T02:05:33.444Z,40.7610
2024-05-09T02:05:44.803Z,40.7670
2024-05-09T02:05:56.007Z,40.7800
2024-05-09T02:06:07.176Z,40.7610
2024-05-09T02:06:18.228Z,40.7720
2024-05-09T02:06:29.266Z,40.7670
2024-05-09T02:06:40.305Z,40.7550
2024-05-09T02:06:51.371Z,40.7490
2024-05-09T02:07:02.418Z,40.7550
2024-05-09T02:07:13.497Z,40.7380
2024-05-09T02:07:24.549Z,40.7490
2024-05-09T02:07:35.611Z,40.7610
2024-05-09T02:07:46.680Z,40.7800
2024-05-09T02:07:57.789Z,40.7720
2024-05-09T02:08:08.949Z,40.7800
2024-05-09T02:08:20.203Z,40.7970
2024-05-09T02:08:31.403Z,40.7970
2024-05-09T02:08:42.606Z,40.7970
2024-05-09T02:08:53.663Z,40.7800
2024-05-09T02:09:04.709Z,40.7720
2024-05-09T02:09:15.753Z,40.7860
2024-05-09T02:09:26.809Z,40.7860
2024-05-09T02:09:37.854Z,40.7910
2024-05-09T02:09:48.913Z,40.8030
2024-05-09T02:09:59.964Z,40.7910
2024-05-09T02:10:16.640Z,40.7800
2024-05-09T02:10:32.488Z,40.9870
2024-05-09T02:10:45.167Z,41.0870
2024-05-09T02:10:56.562Z,40.9910
2024-05-09T02:11:07.709Z,40.9310
2024-05-09T02:11:18.859Z,40.8750
2024-05-09T02:11:30.017Z,40.8560
2024-05-09T02:11:41.220Z,40.8380
2024-05-09T02:11:52.392Z,40.8330
2024-05-09T02:12:03.532Z,40.8270
2024-05-09T02:12:14.853Z,40.8270
2024-05-09T02:12:26.086Z,40.8380
2024-05-09T02:12:37.184Z,40.8320
2024-05-09T02:12:48.226Z,40.8090
2024-05-09T02:12:59.300Z,40.8090
2024-05-09T02:13:10.361Z,40.8260
2024-05-09T02:13:21.386Z,40.8090
2024-05-09T02:13:32.612Z,40.8090
2024-05-09T02:13:43.721Z,40.8150
2024-05-09T02:13:54.832Z,40.8210
2024-05-09T02:14:05.927Z,40.8150
2024-05-09T02:14:16.995Z,40.8210
2024-05-09T02:14:28.159Z,40.8260
2024-05-09T02:14:39.286Z,40.8210
2024-05-09T02:14:50.305Z,40.8320
2024-05-09T02:15:01.352Z,40.8440
2024-05-09T02:15:12.398Z,40.8210
2024-05-09T02:15:23.449Z,40.8260
2024-05-09T02:15:34.503Z,40.8210
2024-05-09T02:15:45.541Z,40.8260
2024-05-09T02:15:56.585Z,40.8260
2024-05-09T02:16:07.650Z,40.8260
2024-05-09T02:16:18.708Z,40.8260
2024-05-09T02:16:29.746Z,40.8210
2024-05-09T02:16:40.807Z,40.8260
2024-05-09T02:16:51.916Z,40.8210
2024-05-09T02:17:03.032Z,40.8440
2024-05-09T02:17:14.177Z,40.8440
2024-05-09T02:17:25.458Z,40.8500
2024-05-09T02:17:36.758Z,40.8610
2024-05-09T02:17:48.034Z,40.8550
2024-05-09T02:17:59.218Z,40.8440
2024-05-09T02:18:11.386Z,40.8750
2024-05-09T02:18:23.171Z,40.9030
2024-05-09T02:18:34.453Z,40.8810